This is the latest recevied weather packets stored in our database for station/object DB0MW-13. If no packets are shown the sender has not sent any weather packets the latest 10 day(s).
| Time | Temp. | Humidity | Pressure | Rain* | Wind** | Luminosity | Snow |
|---|---|---|---|---|---|---|---|
| 1777645800 | 26.11° C | 27% | 1025.1 hPa | 0 mm | - | - | - |
| 1777645500 | 26.11° C | 27% | 1025 hPa | 0 mm | - | - | - |
| 1777645200 | 26.11° C | 26% | 1025.1 hPa | 0 mm | - | - | - |
| 1777644901 | 25.56° C | 28% | 1025.4 hPa | 0 mm | - | - | - |
| 1777644601 | 25.56° C | 28% | 1025.2 hPa | 0 mm | - | - | - |
| 1777644301 | 25.56° C | 28% | 1025.4 hPa | 0 mm | - | - | - |
| 1777643701 | 25.56° C | 26% | 1025.4 hPa | 0 mm | - | - | - |
| 1777643101 | 25.56° C | 26% | 1025.7 hPa | 0 mm | - | - | - |
| 1777642801 | 25.56° C | 26% | 1025.6 hPa | 0 mm | - | - | - |
| 1777642501 | 25.56° C | 24% | 1025.7 hPa | 0 mm | - | - | - |
| 1777642201 | 25° C | 25% | 1025.7 hPa | 0 mm | - | - | - |
| 1777641601 | 25° C | 24% | 1025.9 hPa | 0 mm | - | - | - |
| 1777638600 | 23.89° C | 25% | 1026.7 hPa | 0 mm | - | - | - |
| 1777638300 | 23.89° C | 25% | 1026.8 hPa | 0 mm | - | - | - |
| 1777638000 | 23.89° C | 25% | 1026.9 hPa | 0 mm | - | - | - |
| 1777637100 | 23.33° C | 27% | 1027 hPa | 0 mm | - | - | - |
| 1777636800 | 23.33° C | 27% | 1027.1 hPa | 0 mm | - | - | - |
| 1777636200 | 22.78° C | 27% | 1027.2 hPa | 0 mm | - | - | - |
| 1777635601 | 22.22° C | 27% | 1027.2 hPa | 0 mm | - | - | - |
| 1777635301 | 22.22° C | 27% | 1027.5 hPa | 0 mm | - | - | - |
| 1777635001 | 22.22° C | 28% | 1027.3 hPa | 0 mm | - | - | - |
| 1777634701 | 21.67° C | 29% | 1027.4 hPa | 0 mm | - | - | - |
| 1777634401 | 21.67° C | 29% | 1027.5 hPa | 0 mm | - | - | - |
| 1777634101 | 21.67° C | 31% | 1027.6 hPa | 0 mm | - | - | - |
| 1777633801 | 21.67° C | 30% | 1027.6 hPa | 0 mm | - | - | - |
* Rain latest hour (hover to see other rain measurements)
** Current wind speed in m/s (hover to see current wind gust speed)